Time;durP1;ratioP1;P1;durP2;ratioP2;P2;SDS_P1;SDS_P2;PMS_P1;PMS_P2;Temp;Humidity;BMP_temperature;BMP_pressure;BME280_temperature;BME280_humidity;BME280_pressure;Samples;Min_cycle;Max_cycle;Signal;HPM_P1;HPM_P2
2021/05/10 00:01:05;;;;;;;25.38;15.93;;;5.00;74.70;;;;;;5107174;28;20024;-75
2021/05/10 00:03:30;;;;;;;23.95;14.65;;;4.90;74.80;;;;;;5079578;28;20020;-75
2021/05/10 00:05:56;;;;;;;18.27;12.82;;;4.90;74.90;;;;;;5093984;28;20016;-75
2021/05/10 00:08:23;;;;;;;21.45;13.23;;;4.90;75.10;;;;;;5101151;28;20024;-77
2021/05/10 00:10:49;;;;;;;22.00;14.30;;;4.90;75.20;;;;;;5097673;28;20435;-75
2021/05/10 00:13:16;;;;;;;27.88;15.80;;;4.90;75.40;;;;;;5093357;28;20484;-74
2021/05/10 00:15:44;;;;;;;22.55;14.57;;;4.80;75.30;;;;;;5091413;28;20028;-77
2021/05/10 00:18:09;;;;;;;32.55;19.65;;;4.80;75.30;;;;;;5101127;28;20135;-75
2021/05/10 00:20:38;;;;;;;36.10;22.67;;;4.80;75.50;;;;;;5087362;28;20111;-76
2021/05/10 00:23:05;;;;;;;29.45;18.35;;;4.80;75.50;;;;;;5099961;28;20016;-75
2021/05/10 00:25:31;;;;;;;32.20;19.67;;;4.80;75.60;;;;;;5092873;28;20012;-75
2021/05/10 00:27:57;;;;;;;27.75;16.50;;;4.70;75.60;;;;;;5076419;28;20013;-75
2021/05/10 00:30:24;;;;;;;33.00;19.42;;;4.70;75.70;;;;;;5100088;28;20477;-75
2021/05/10 00:32:51;;;;;;;38.00;21.42;;;4.70;75.80;;;;;;5099140;28;20427;-76
2021/05/10 00:35:17;;;;;;;29.98;19.17;;;4.70;75.80;;;;;;5088942;28;20172;-76
2021/05/10 00:37:45;;;;;;;27.40;18.65;;;4.70;76.00;;;;;;5113154;28;20031;-76
2021/05/10 00:40:13;;;;;;;37.13;22.98;;;4.70;76.30;;;;;;5096722;28;20028;-75
2021/05/10 00:42:39;;;;;;;29.13;19.35;;;4.60;76.20;;;;;;5095220;28;20463;-76
2021/05/10 00:45:06;;;;;;;31.02;20.10;;;4.60;76.20;;;;;;5100862;28;20028;-76
2021/05/10 00:47:32;;;;;;;33.50;21.17;;;4.60;76.10;;;;;;5089788;28;20020;-75
2021/05/10 00:49:58;;;;;;;31.23;19.38;;;4.60;76.10;;;;;;5081504;28;20039;-76
2021/05/10 00:52:24;;;;;;;27.23;19.17;;;4.60;76.20;;;;;;5094361;28;20027;-76
2021/05/10 00:54:51;;;;;;;28.00;18.00;;;4.60;76.40;;;;;;5115221;28;20035;-75
2021/05/10 00:57:18;;;;;;;28.13;18.33;;;4.60;76.40;;;;;;5090745;28;20027;-75
2021/05/10 00:59:45;;;;;;;30.60;19.38;;;4.60;76.40;;;;;;5103286;28;20024;-75
2021/05/10 01:02:11;;;;;;;28.60;19.23;;;4.50;76.10;;;;;;5111956;28;20077;-76
2021/05/10 01:04:36;;;;;;;28.83;18.20;;;4.50;76.20;;;;;;5104386;28;20435;-76
2021/05/10 01:07:02;;;;;;;34.45;20.70;;;4.40;76.20;;;;;;5095514;28;20353;-76
2021/05/10 01:09:28;;;;;;;27.88;18.65;;;4.40;76.30;;;;;;5097629;28;20019;-77
2021/05/10 01:11:53;;;;;;;28.08;18.00;;;4.40;76.40;;;;;;5115533;28;20088;-76
2021/05/10 01:14:19;;;;;;;25.55;18.17;;;4.30;76.50;;;;;;5087472;28;20035;-75
2021/05/10 01:16:45;;;;;;;28.30;19.05;;;4.40;76.50;;;;;;5082520;28;20085;-75
2021/05/10 01:19:13;;;;;;;26.67;17.67;;;4.30;76.20;;;;;;5115785;28;20020;-73
2021/05/10 01:21:40;;;;;;;28.52;18.42;;;4.30;76.40;;;;;;5102384;28;20438;-74
2021/05/10 01:24:06;;;;;;;25.02;17.85;;;4.30;76.40;;;;;;5078006;28;20016;-74
2021/05/10 01:26:32;;;;;;;30.10;20.02;;;4.20;76.20;;;;;;5104885;28;20050;-74
2021/05/10 01:29:01;;;;;;;33.92;23.15;;;4.20;76.60;;;;;;5102283;28;20019;-79
2021/05/10 01:31:26;;;;;;;27.38;18.23;;;4.20;76.80;;;;;;5110572;28;20019;-81
2021/05/10 01:33:52;;;;;;;23.92;15.63;;;4.10;77.10;;;;;;5115023;28;20016;-80
2021/05/10 01:36:18;;;;;;;30.33;15.07;;;4.10;77.20;;;;;;5094309;28;20047;-80
2021/05/10 01:38:47;;;;;;;26.23;15.80;;;4.10;77.20;;;;;;5101983;28;20384;-76
2021/05/10 01:41:13;;;;;;;24.40;16.23;;;4.10;77.00;;;;;;5091792;28;20024;-75
2021/05/10 01:43:43;;;;;;;28.35;18.13;;;4.10;76.90;;;;;;5108117;28;20017;-76
2021/05/10 01:46:09;;;;;;;29.50;19.10;;;4.00;76.90;;;;;;5106460;28;20028;-76
2021/05/10 01:48:37;;;;;;;27.50;17.70;;;4.00;76.90;;;;;;5099311;28;20027;-75
2021/05/10 01:51:04;;;;;;;25.48;16.15;;;4.00;77.00;;;;;;5081278;28;20044;-75
2021/05/10 01:53:30;;;;;;;21.40;14.77;;;4.00;77.20;;;;;;5067174;28;20032;-75
2021/05/10 01:55:59;;;;;;;26.90;16.23;;;3.90;77.40;;;;;;5095346;28;20023;-76
2021/05/10 01:58:25;;;;;;;24.70;15.52;;;3.90;77.50;;;;;;5090839;28;20032;-75
2021/05/10 02:00:52;;;;;;;22.30;15.02;;;3.90;77.70;;;;;;5105528;28;20544;-76
2021/05/10 02:03:20;;;;;;;27.60;17.50;;;3.90;77.90;;;;;;5107196;28;20022;-75
2021/05/10 02:05:47;;;;;;;22.52;15.15;;;3.90;77.90;;;;;;5079393;28;20024;-75
2021/05/10 02:08:14;;;;;;;28.20;16.52;;;3.90;77.90;;;;;;5095435;28;20205;-74
2021/05/10 02:10:51;;;;;;;26.77;16.80;;;3.90;77.80;;;;;;5086970;28;20126;-75
2021/05/10 02:13:24;;;;;;;29.95;16.65;;;3.90;78.00;;;;;;5078342;28;20161;-75
2021/05/10 02:15:52;;;;;;;27.63;15.82;;;3.90;77.90;;;;;;5103626;28;20376;-75
2021/05/10 02:18:21;;;;;;;25.48;15.52;;;3.90;78.10;;;;;;5075202;28;20178;-75
2021/05/10 02:20:48;;;;;;;24.40;15.60;;;3.90;78.50;;;;;;5072703;28;20149;-74
2021/05/10 02:23:18;;;;;;;25.00;16.73;;;3.90;78.60;;;;;;5074940;28;20048;-75
2021/05/10 02:25:48;;;;;;;27.58;16.55;;;3.90;78.10;;;;;;5083118;28;20015;-75
2021/05/10 02:28:17;;;;;;;25.33;16.35;;;3.90;78.00;;;;;;5075795;28;20398;-75
2021/05/10 02:30:44;;;;;;;23.23;14.68;;;3.90;77.90;;;;;;5083442;28;20028;-75
2021/05/10 02:33:16;;;;;;;20.38;13.43;;;3.90;78.10;;;;;;5089704;28;20482;-75
2021/05/10 02:35:46;;;;;;;21.48;14.48;;;3.90;78.30;;;;;;5090455;28;20069;-75
2021/05/10 02:38:15;;;;;;;24.73;14.85;;;3.90;78.40;;;;;;5078546;28;20500;-75
2021/05/10 02:40:42;;;;;;;21.00;13.55;;;3.90;78.50;;;;;;5086291;28;20507;-75
2021/05/10 02:43:08;;;;;;;23.98;13.82;;;3.90;78.70;;;;;;5080285;28;20016;-75
2021/05/10 02:45:35;;;;;;;20.75;13.07;;;4.00;78.80;;;;;;5087185;28;20016;-77
2021/05/10 02:48:02;;;;;;;27.75;15.43;;;4.00;78.60;;;;;;5084640;28;20107;-75
2021/05/10 02:50:28;;;;;;;23.15;14.30;;;4.00;78.60;;;;;;5074735;28;20016;-79
2021/05/10 02:52:58;;;;;;;22.60;13.50;;;4.10;78.70;;;;;;5087072;28;20431;-76
2021/05/10 02:55:24;;;;;;;25.92;14.70;;;4.10;78.90;;;;;;5086293;28;20381;-76
2021/05/10 02:57:53;;;;;;;24.42;14.50;;;4.20;79.00;;;;;;5086259;28;20118;-76
2021/05/10 03:00:21;;;;;;;23.08;13.75;;;4.20;79.00;;;;;;5077346;28;20043;-77
2021/05/10 03:02:47;;;;;;;23.00;14.40;;;4.30;79.20;;;;;;5085531;28;20020;-76
2021/05/10 03:05:16;;;;;;;24.38;14.65;;;4.30;79.00;;;;;;5086947;28;20358;-75
2021/05/10 03:07:42;;;;;;;23.00;14.70;;;4.40;79.10;;;;;;5084205;28;20020;-76
2021/05/10 03:10:14;;;;;;;24.38;15.02;;;4.50;78.80;;;;;;5087864;28;20426;-75
2021/05/10 03:12:41;;;;;;;24.02;13.98;;;4.60;78.80;;;;;;5075613;28;20029;-76
2021/05/10 03:15:09;;;;;;;21.67;14.70;;;4.60;78.90;;;;;;5071621;28;20525;-76
2021/05/10 03:17:36;;;;;;;29.63;17.52;;;4.70;78.90;;;;;;5074124;28;20382;-77
2021/05/10 03:20:04;;;;;;;46.75;21.80;;;4.80;78.80;;;;;;5075160;28;20388;-75
2021/05/10 03:22:30;;;;;;;50.55;24.17;;;4.90;78.80;;;;;;5078739;28;20066;-77
2021/05/10 03:24:57;;;;;;;47.15;24.77;;;5.00;78.90;;;;;;5084630;28;20024;-76
2021/05/10 03:27:22;;;;;;;48.85;27.52;;;5.10;78.90;;;;;;5083311;28;20016;-76
2021/05/10 03:29:48;;;;;;;56.10;31.15;;;5.20;78.90;;;;;;5077110;28;20507;-75
2021/05/10 03:32:16;;;;;;;43.53;28.08;;;5.30;78.90;;;;;;5082554;28;20054;-77
2021/05/10 03:34:43;;;;;;;38.50;24.58;;;5.40;78.80;;;;;;5088351;28;20031;-75
2021/05/10 03:37:11;;;;;;;37.05;23.60;;;5.50;78.80;;;;;;5061862;28;20043;-75
2021/05/10 03:39:38;;;;;;;28.58;18.92;;;5.60;78.70;;;;;;5078409;28;20116;-75
2021/05/10 03:42:14;;;;;;;32.05;20.23;;;5.70;78.60;;;;;;5071637;28;20020;-76
2021/05/10 03:44:43;;;;;;;31.27;19.23;;;5.80;78.60;;;;;;5075598;28;20032;-76
2021/05/10 03:47:08;;;;;;;27.88;18.35;;;5.90;78.50;;;;;;5089757;28;20023;-76
2021/05/10 03:49:34;;;;;;;25.60;17.63;;;6.00;78.40;;;;;;5080461;28;20025;-76
2021/05/10 03:52:00;;;;;;;27.65;17.95;;;6.10;78.40;;;;;;5081477;28;20028;-77
2021/05/10 03:54:25;;;;;;;26.20;16.45;;;6.20;78.30;;;;;;5075174;28;20031;-76
2021/05/10 03:56:51;;;;;;;26.65;18.23;;;6.40;78.30;;;;;;5072063;28;20048;-77
2021/05/10 03:59:18;;;;;;;28.55;19.23;;;6.50;78.20;;;;;;5075545;28;20016;-77
2021/05/10 04:01:56;;;;;;;26.00;18.38;;;6.60;78.10;;;;;;5089397;28;20024;-76
2021/05/10 04:04:27;;;;;;;24.98;17.30;;;6.70;78.00;;;;;;5075491;28;20521;-76
2021/05/10 04:07:57;;;;;;;21.35;14.25;;;6.80;77.90;;;;;;5077450;28;20020;-75
2021/05/10 04:10:05;;;;;;;23.40;14.65;;;6.90;77.90;;;;;;5073956;28;20482;-76
2021/05/10 04:15:18;;;;;;;23.52;15.50;;;7.20;77.70;;;;;;5089748;28;20085;-76
2021/05/10 04:17:45;;;;;;;22.42;14.02;;;7.30;77.60;;;;;;5076945;28;20040;-76
2021/05/10 04:20:12;;;;;;;17.95;12.25;;;7.40;77.60;;;;;;5075518;28;20044;-75
2021/05/10 04:22:38;;;;;;;19.75;13.13;;;7.60;77.70;;;;;;5078215;28;20311;-75
2021/05/10 04:25:05;;;;;;;19.50;12.45;;;7.70;77.80;;;;;;5083862;28;20419;-76
2021/05/10 04:27:31;;;;;;;21.10;13.63;;;7.90;78.10;;;;;;5082076;28;20056;-77
2021/05/10 04:29:57;;;;;;;22.95;14.57;;;8.00;78.10;;;;;;5091845;28;20060;-77
2021/05/10 04:32:26;;;;;;;20.20;14.68;;;8.20;78.10;;;;;;5087281;28;20048;-75
2021/05/10 04:34:52;;;;;;;23.80;15.40;;;8.40;78.00;;;;;;5085581;28;20407;-75
2021/05/10 04:37:18;;;;;;;21.52;14.93;;;8.60;77.90;;;;;;5088637;28;20030;-77
2021/05/10 04:39:45;;;;;;;18.30;12.68;;;8.80;77.80;;;;;;5075384;28;20025;-77
2021/05/10 04:42:13;;;;;;;18.83;13.55;;;8.90;77.40;;;;;;5089742;28;20029;-77
2021/05/10 04:44:50;;;;;;;20.02;13.85;;;9.10;77.20;;;;;;5081766;28;20507;-78
2021/05/10 04:47:15;;;;;;;20.70;13.90;;;9.30;77.00;;;;;;5093298;28;20021;-78
2021/05/10 04:49:44;;;;;;;16.08;12.02;;;9.50;76.90;;;;;;5084471;28;20543;-76
2021/05/10 04:52:13;;;;;;;16.33;12.15;;;9.60;77.30;;;;;;5077454;28;20036;-76
2021/05/10 04:54:38;;;;;;;16.00;11.77;;;9.80;76.40;;;;;;5088747;28;20020;-75
2021/05/10 04:57:05;;;;;;;15.43;10.35;;;9.90;76.00;;;;;;5088858;28;20020;-76
2021/05/10 04:59:33;;;;;;;16.83;11.00;;;10.10;75.30;;;;;;5076210;28;20373;-77
2021/05/10 05:01:58;;;;;;;16.67;10.52;;;10.20;74.70;;;;;;5078730;28;20048;-75
2021/05/10 05:04:30;;;;;;;15.50;9.57;;;10.30;74.50;;;;;;5085897;28;20052;-77
2021/05/10 05:07:04;;;;;;;12.60;8.80;;;10.40;74.40;;;;;;5094096;28;20073;-78
2021/05/10 05:09:50;;;;;;;10.88;8.10;;;10.60;74.00;;;;;;5088349;28;20016;-78
2021/05/10 05:12:30;;;;;;;12.55;7.70;;;10.70;73.70;;;;;;5069663;28;20044;-79
2021/05/10 05:15:21;;;;;;;8.15;5.55;;;10.80;72.50;;;;;;5087984;28;20063;-78
2021/05/10 05:17:50;;;;;;;8.68;5.88;;;10.90;71.70;;;;;;5092960;28;20122;-78
2021/05/10 05:20:21;;;;;;;9.02;6.05;;;11.10;70.50;;;;;;5088659;28;20027;-77
2021/05/10 05:22:50;;;;;;;9.82;6.00;;;11.20;68.70;;;;;;5090258;28;20028;-78
2021/05/10 05:25:16;;;;;;;8.73;5.65;;;11.20;68.70;;;;;;5096547;28;20026;-76
2021/05/10 05:27:42;;;;;;;8.45;6.03;;;11.30;68.30;;;;;;5091813;28;20039;-75
2021/05/10 05:30:10;;;;;;;6.47;4.90;;;11.50;67.90;;;;;;5104076;28;20533;-78
2021/05/10 05:32:39;;;;;;;7.40;5.10;;;11.60;67.30;;;;;;5115369;28;20031;-78
2021/05/10 05:35:14;;;;;;;6.57;4.35;;;11.70;67.00;;;;;;5081802;28;20023;-77
2021/05/10 05:37:42;;;;;;;6.28;4.57;;;11.90;65.20;;;;;;5085952;28;20028;-78
2021/05/10 05:40:11;;;;;;;7.15;5.15;;;12.00;65.00;;;;;;5099169;28;20036;-78
2021/05/10 05:42:38;;;;;;;8.68;5.63;;;12.20;64.50;;;;;;5087296;28;20331;-77
2021/05/10 05:45:18;;;;;;;9.40;6.35;;;12.30;62.00;;;;;;5108847;28;20072;-79
2021/05/10 05:47:44;;;;;;;7.90;4.78;;;12.40;58.50;;;;;;5079139;28;20027;-78
2021/05/10 05:50:11;;;;;;;8.18;4.47;;;12.50;59.10;;;;;;5091198;28;20032;-77
2021/05/10 05:52:39;;;;;;;8.50;4.72;;;12.50;59.40;;;;;;5082549;28;20392;-77
2021/05/10 05:55:05;;;;;;;6.18;4.22;;;12.60;59.60;;;;;;5078486;28;20028;-77
2021/05/10 05:57:32;;;;;;;5.78;4.13;;;12.70;59.70;;;;;;5108167;28;20028;-78
2021/05/10 06:00:01;;;;;;;5.75;4.25;;;12.90;59.60;;;;;;5081722;28;20055;-79
2021/05/10 06:02:27;;;;;;;7.40;4.70;;;13.00;60.00;;;;;;5072248;28;20020;-78
2021/05/10 06:05:01;;;;;;;6.93;5.03;;;13.20;58.20;;;;;;5111770;28;20102;-77
2021/05/10 06:07:27;;;;;;;8.30;4.93;;;13.30;56.40;;;;;;5106787;28;20021;-75
2021/05/10 06:09:55;;;;;;;9.48;4.70;;;13.30;57.20;;;;;;5110491;28;20449;-74
2021/05/10 06:12:21;;;;;;;8.90;5.03;;;13.40;56.20;;;;;;5104394;28;20026;-74
2021/05/10 06:14:47;;;;;;;9.80;4.80;;;13.40;56.00;;;;;;5109408;28;20062;-76
2021/05/10 06:17:13;;;;;;;9.45;5.80;;;13.50;54.40;;;;;;5083777;28;20038;-75
2021/05/10 06:19:40;;;;;;;6.43;5.00;;;13.60;55.10;;;;;;5102237;28;20027;-75
2021/05/10 06:22:05;;;;;;;8.40;5.18;;;13.70;54.60;;;;;;5090297;28;20045;-74
2021/05/10 06:24:31;;;;;;;6.70;4.22;;;13.80;53.50;;;;;;5084618;28;20089;-76
2021/05/10 06:26:57;;;;;;;6.15;4.20;;;13.90;53.30;;;;;;5088546;28;20020;-74
2021/05/10 06:29:23;;;;;;;6.63;4.22;;;13.90;53.80;;;;;;5107417;28;20095;-76
2021/05/10 06:31:48;;;;;;;7.20;4.35;;;14.00;53.90;;;;;;5099836;28;20513;-75
2021/05/10 06:34:14;;;;;;;6.45;3.75;;;14.10;53.80;;;;;;5081340;28;20032;-76
2021/05/10 06:36:40;;;;;;;3.95;3.05;;;14.10;52.80;;;;;;5085715;28;20540;-75
2021/05/10 06:39:06;;;;;;;4.43;2.78;;;14.10;52.60;;;;;;5091793;28;20020;-75
2021/05/10 06:41:33;;;;;;;4.25;2.70;;;14.20;52.70;;;;;;5098805;28;20020;-76
2021/05/10 06:43:59;;;;;;;3.45;2.40;;;14.30;52.10;;;;;;5089883;28;20028;-79
2021/05/10 06:46:25;;;;;;;3.55;2.67;;;14.40;49.90;;;;;;5089872;28;20058;-79
2021/05/10 06:48:53;;;;;;;4.00;2.70;;;14.50;49.40;;;;;;5102604;28;20076;-77
2021/05/10 06:51:20;;;;;;;5.25;2.63;;;14.50;49.90;;;;;;5082057;28;20020;-75
2021/05/10 06:53:46;;;;;;;3.88;2.53;;;14.60;49.80;;;;;;5068003;28;20028;-76
2021/05/10 06:56:13;;;;;;;3.92;2.70;;;14.60;49.40;;;;;;5088980;28;20030;-78
2021/05/10 06:58:39;;;;;;;4.95;3.00;;;14.70;49.50;;;;;;5092488;28;20166;-78
2021/05/10 07:01:26;;;;;;;4.60;3.17;;;14.70;49.60;;;;;;5083939;28;20024;-79
2021/05/10 07:03:52;;;;;;;6.25;2.65;;;14.80;46.90;;;;;;5089160;28;20504;-79
2021/05/10 07:06:22;;;;;;;3.90;2.47;;;14.80;48.70;;;;;;5102614;28;20136;-82
2021/05/10 07:08:48;;;;;;;3.83;2.40;;;14.90;47.00;;;;;;5088693;28;20031;-77
2021/05/10 07:11:14;;;;;;;8.57;2.50;;;14.90;47.80;;;;;;5105947;28;20028;-78
2021/05/10 07:13:40;;;;;;;2.40;2.00;;;14.90;47.50;;;;;;5082875;28;20478;-78
2021/05/10 07:16:07;;;;;;;6.03;3.50;;;15.00;47.00;;;;;;5105385;28;20020;-77
2021/05/10 07:18:33;;;;;;;4.57;3.00;;;15.10;46.90;;;;;;5081622;28;20188;-77
2021/05/10 07:20:59;;;;;;;4.00;2.75;;;15.20;46.30;;;;;;5097073;28;20035;-78
2021/05/10 07:23:25;;;;;;;5.93;2.53;;;15.20;46.00;;;;;;5076660;28;20119;-78
2021/05/10 07:25:52;;;;;;;4.15;2.13;;;15.20;45.40;;;;;;5109702;28;20048;-78
2021/05/10 07:28:20;;;;;;;5.93;3.63;;;15.10;45.40;;;;;;5105600;28;20030;-78
2021/05/10 07:30:47;;;;;;;6.35;4.63;;;15.20;46.00;;;;;;5089827;28;20072;-77
2021/05/10 07:33:13;;;;;;;5.78;3.17;;;15.20;46.00;;;;;;5082931;28;20023;-76
2021/05/10 07:35:41;;;;;;;3.88;2.40;;;15.30;45.80;;;;;;5087146;28;20028;-74
2021/05/10 07:38:08;;;;;;;4.30;2.90;;;15.30;45.00;;;;;;5082493;28;20020;-76
2021/05/10 07:40:34;;;;;;;6.07;3.35;;;15.30;45.40;;;;;;5084066;28;20469;-74
2021/05/10 07:43:00;;;;;;;4.47;3.10;;;15.30;44.10;;;;;;5098385;28;20020;-80
2021/05/10 07:45:39;;;;;;;;;;;;;;;;;;;;;
2021/05/10 07:48:11;;;;;;;4.63;3.08;;;15.20;43.50;;;;;;5097797;28;20372;-80
2021/05/10 07:50:37;;;;;;;5.38;3.15;;;15.20;43.00;;;;;;5082234;28;20479;-78
2021/05/10 07:53:13;;;;;;;5.35;3.53;;;15.20;44.50;;;;;;5090595;28;20020;-77
2021/05/10 07:55:39;;;;;;;3.22;1.90;;;15.30;44.10;;;;;;5107925;28;20023;-78
2021/05/10 07:58:05;;;;;;;3.70;2.22;;;15.40;44.50;;;;;;5090021;28;20046;-76
2021/05/10 08:00:33;;;;;;;2.78;2.20;;;15.40;44.10;;;;;;5075560;28;20035;-77
2021/05/10 08:05:54;;;;;;;2.70;2.30;;;15.50;41.30;;;;;;5103256;28;20059;-77
2021/05/10 08:08:24;;;;;;;2.88;2.40;;;15.50;40.40;;;;;;5078993;28;20024;-76
2021/05/10 08:10:50;;;;;;;3.22;2.40;;;15.60;39.40;;;;;;5076534;28;20032;-74
2021/05/10 08:13:16;;;;;;;2.85;2.47;;;15.50;41.00;;;;;;5089607;28;20449;-76
2021/05/10 08:15:47;;;;;;;3.20;2.70;;;15.50;41.60;;;;;;5079800;28;20022;-75
2021/05/10 08:18:16;;;;;;;3.95;2.40;;;15.60;42.40;;;;;;5074677;28;20459;-77
2021/05/10 08:20:44;;;;;;;4.05;2.47;;;15.60;42.50;;;;;;5085820;28;20093;-77
2021/05/10 08:23:10;;;;;;;7.28;3.00;;;15.80;43.00;;;;;;5073034;28;20056;-75
2021/05/10 08:25:37;;;;;;;6.15;2.83;;;15.80;41.50;;;;;;5081874;28;20427;-76
2021/05/10 08:28:06;;;;;;;5.35;2.90;;;15.80;41.80;;;;;;5089572;28;20393;-78
2021/05/10 08:30:32;;;;;;;3.35;2.38;;;15.80;42.00;;;;;;5098185;28;20114;-76
2021/05/10 08:32:58;;;;;;;6.97;2.70;;;15.90;41.20;;;;;;5072690;28;20442;-77
2021/05/10 08:35:26;;;;;;;5.40;2.88;;;15.90;42.00;;;;;;5079003;28;20110;-77
2021/05/10 08:37:51;;;;;;;4.47;2.20;;;15.90;42.20;;;;;;5086620;28;20032;-74
2021/05/10 08:40:17;;;;;;;3.35;2.45;;;16.00;42.80;;;;;;5082940;28;20129;-77
2021/05/10 08:42:43;;;;;;;3.13;2.25;;;16.10;42.90;;;;;;5090754;28;20024;-77
2021/05/10 08:45:22;;;;;;;3.58;2.38;;;16.30;43.10;;;;;;5079847;28;20429;-78
2021/05/10 08:47:48;;;;;;;3.72;2.30;;;16.30;43.00;;;;;;5093019;28;20016;-77
2021/05/10 08:50:15;;;;;;;4.22;2.58;;;16.40;43.10;;;;;;5084289;28;20028;-77
2021/05/10 08:52:42;;;;;;;3.40;2.30;;;16.50;42.10;;;;;;5078101;28;20024;-77
2021/05/10 08:55:12;;;;;;;4.05;2.80;;;16.50;41.80;;;;;;5090522;28;20028;-76
2021/05/10 08:57:37;;;;;;;3.28;2.50;;;16.50;40.20;;;;;;5102732;28;20070;-76
2021/05/10 09:00:04;;;;;;;3.88;2.25;;;16.60;40.00;;;;;;5074796;28;20381;-77
2021/05/10 09:02:32;;;;;;;2.92;2.30;;;16.60;41.20;;;;;;5080665;28;20048;-78
2021/05/10 09:05:10;;;;;;;3.25;2.20;;;16.70;40.90;;;;;;5073342;28;20516;-76
2021/05/10 09:07:38;;;;;;;3.53;2.35;;;16.60;38.00;;;;;;5080353;28;20039;-76
2021/05/10 09:10:13;;;;;;;4.65;2.05;;;16.60;40.00;;;;;;5084801;28;20420;-76
2021/05/10 09:12:49;;;;;;;3.13;2.30;;;16.60;40.10;;;;;;5088803;28;20055;-74
2021/05/10 09:15:27;;;;;;;3.90;2.40;;;16.60;40.00;;;;;;5085893;28;20115;-78
2021/05/10 09:18:01;;;;;;;2.55;2.10;;;16.60;39.10;;;;;;5081794;28;20078;-78
2021/05/10 09:20:38;;;;;;;2.58;1.92;;;16.60;39.80;;;;;;5086081;28;20024;-76
2021/05/10 09:23:13;;;;;;;3.05;2.40;;;16.70;39.10;;;;;;5079369;28;20035;-76
2021/05/10 09:25:44;;;;;;;2.45;2.13;;;16.70;39.10;;;;;;5089947;28;20029;-78
2021/05/10 09:28:19;;;;;;;2.70;2.22;;;16.70;38.80;;;;;;5086299;28;20531;-77
2021/05/10 09:30:46;;;;;;;4.38;2.00;;;16.70;37.50;;;;;;5072429;28;20024;-76
2021/05/10 09:33:27;;;;;;;3.17;2.10;;;16.80;40.60;;;;;;5080688;28;20025;-76
2021/05/10 09:35:56;;;;;;;3.47;2.30;;;16.90;39.20;;;;;;5082539;28;20017;-75
2021/05/10 09:38:24;;;;;;;3.05;2.10;;;17.00;40.10;;;;;;5095521;28;20024;-75
2021/05/10 09:40:51;;;;;;;2.42;2.20;;;17.00;39.40;;;;;;5077978;28;20493;-77
2021/05/10 09:43:28;;;;;;;2.58;2.15;;;17.00;39.50;;;;;;5090655;28;20021;-74
2021/05/10 09:45:59;;;;;;;3.10;2.08;;;17.00;39.40;;;;;;5090078;28;20070;-78
2021/05/10 09:48:27;;;;;;;3.05;2.40;;;17.00;39.50;;;;;;5080218;28;20112;-77
2021/05/10 09:50:57;;;;;;;3.83;2.20;;;17.10;39.10;;;;;;5079592;28;20020;-76
2021/05/10 09:53:38;;;;;;;3.13;2.00;;;17.10;37.30;;;;;;5090065;28;20024;-75
2021/05/10 09:56:36;;;;;;;2.40;1.92;;;17.10;35.50;;;;;;5075193;28;20273;-78
2021/05/10 09:59:14;;;;;;;2.65;2.08;;;17.10;39.10;;;;;;5079724;28;20044;-77
2021/05/10 10:01:45;;;;;;;2.28;1.80;;;17.20;40.00;;;;;;5082410;28;20024;-78
2021/05/10 10:04:17;;;;;;;3.38;2.05;;;17.30;39.30;;;;;;5084858;28;20499;-77
2021/05/10 10:06:47;;;;;;;2.40;2.00;;;17.40;38.60;;;;;;5081099;28;20055;-77
2021/05/10 10:09:14;;;;;;;3.53;2.38;;;17.40;38.60;;;;;;5085880;28;20354;-78
2021/05/10 10:11:40;;;;;;;3.70;2.30;;;17.40;37.30;;;;;;5075332;28;20091;-77
2021/05/10 10:14:10;;;;;;;3.78;2.10;;;17.40;37.30;;;;;;5074751;28;20035;-77
2021/05/10 10:16:36;;;;;;;2.97;2.08;;;17.50;38.00;;;;;;5083081;28;20499;-77
2021/05/10 10:19:09;;;;;;;3.05;1.92;;;17.50;38.00;;;;;;5089066;28;20431;-77
2021/05/10 10:21:35;;;;;;;;;;;17.60;37.60;;;;;;5081722;28;20021;-78
2021/05/10 10:24:06;;;;;;;2.20;1.80;;;17.50;37.00;;;;;;5082451;28;19915;-77
2021/05/10 10:26:37;;;;;;;1.95;1.85;;;17.60;39.00;;;;;;5081168;28;20039;-77
2021/05/10 10:29:13;;;;;;;1.80;1.70;;;17.60;38.70;;;;;;5087348;28;20465;-78
2021/05/10 10:31:53;;;;;;;2.00;1.58;;;17.70;38.80;;;;;;5080234;28;20020;-77
2021/05/10 10:34:25;;;;;;;2.63;2.13;;;17.80;39.20;;;;;;5085187;28;20503;-78
2021/05/10 10:36:57;;;;;;;3.00;2.28;;;17.80;37.00;;;;;;5081591;28;20039;-78
2021/05/10 10:39:27;;;;;;;3.00;2.03;;;17.80;37.40;;;;;;5084668;28;20077;-77
2021/05/10 10:42:03;;;;;;;2.65;2.00;;;17.80;37.40;;;;;;5078282;28;20020;-76
2021/05/10 10:44:41;;;;;;;3.55;1.98;;;17.80;36.70;;;;;;5093888;28;20381;-76
2021/05/10 10:47:11;;;;;;;2.78;2.10;;;17.80;34.80;;;;;;5085535;28;20051;-77
2021/05/10 10:49:41;;;;;;;3.13;2.10;;;17.80;36.30;;;;;;5077137;28;20020;-78
2021/05/10 10:52:21;;;;;;;2.42;1.75;;;17.80;37.10;;;;;;5074701;28;20024;-78
2021/05/10 10:55:07;;;;;;;2.78;2.10;;;17.90;35.90;;;;;;5076772;28;20016;-77
2021/05/10 10:57:36;;;;;;;3.75;2.00;;;17.90;36.30;;;;;;5074496;28;20020;-76
2021/05/10 11:00:02;;;;;;;2.65;2.10;;;17.90;36.30;;;;;;5082814;28;20489;-75
2021/05/10 11:02:38;;;;;;;4.63;1.90;;;17.90;37.20;;;;;;5082862;28;20111;-76
2021/05/10 11:05:20;;;;;;;2.72;2.03;;;18.10;37.60;;;;;;5081435;28;20024;-77
2021/05/10 11:08:08;;;;;;;5.00;3.45;;;18.20;34.60;;;;;;5067938;28;20453;-77
2021/05/10 11:10:41;;;;;;;2.20;1.77;;;18.20;36.80;;;;;;5084705;28;20077;-77
2021/05/10 11:13:09;;;;;;;1.95;1.70;;;18.40;35.60;;;;;;5080787;28;20058;-76
2021/05/10 11:15:38;;;;;;;2.28;1.90;;;18.40;37.40;;;;;;5077417;28;20048;-76
2021/05/10 11:18:08;;;;;;;3.58;2.38;;;18.40;36.50;;;;;;5096991;28;20577;-75
2021/05/10 11:20:40;;;;;;;2.25;1.70;;;18.40;34.70;;;;;;5078872;28;20032;-75
2021/05/10 11:23:32;;;;;;;2.10;1.60;;;18.30;35.40;;;;;;5083746;28;20023;-75
2021/05/10 11:26:06;;;;;;;2.38;2.00;;;18.30;35.30;;;;;;5103079;28;20062;-75
2021/05/10 11:28:32;;;;;;;2.65;1.85;;;18.30;36.00;;;;;;5074777;28;20032;-77
2021/05/10 11:31:11;;;;;;;4.03;2.10;;;18.30;35.20;;;;;;5084244;28;20016;-78
2021/05/10 11:33:55;;;;;;;2.35;1.80;;;18.20;33.70;;;;;;5099462;28;20020;-77
2021/05/10 11:36:31;;;;;;;2.20;2.00;;;18.30;33.30;;;;;;5107287;28;20020;-75
2021/05/10 11:39:12;;;;;;;1.77;1.67;;;18.30;33.60;;;;;;5080888;28;20020;-80
2021/05/10 11:41:41;;;;;;;2.85;1.92;;;18.40;35.80;;;;;;5093813;28;20516;-76
2021/05/10 11:44:09;;;;;;;1.80;1.65;;;18.30;35.00;;;;;;5089924;28;20024;-75
2021/05/10 11:46:47;;;;;;;4.15;2.17;;;18.40;35.30;;;;;;5093688;28;20038;-77
2021/05/10 11:49:25;;;;;;;2.42;2.03;;;18.40;33.90;;;;;;5093126;28;20105;-75
2021/05/10 11:51:51;;;;;;;2.38;1.95;;;18.50;34.00;;;;;;5089369;28;20024;-78
2021/05/10 11:54:20;;;;;;;2.53;1.90;;;18.50;35.50;;;;;;5085482;28;20020;-79
2021/05/10 11:56:46;;;;;;;1.85;1.70;;;18.50;34.40;;;;;;5080647;28;20392;-76
2021/05/10 12:02:00;;;;;;;2.28;2.08;;;18.50;31.70;;;;;;5098130;28;20116;-76
2021/05/10 12:04:31;;;;;;;2.65;1.67;;;18.40;33.40;;;;;;5084461;28;20023;-76
2021/05/10 12:06:58;;;;;;;1.83;1.55;;;18.40;33.80;;;;;;5090507;28;20012;-76
2021/05/10 12:09:31;;;;;;;2.63;2.10;;;18.50;34.70;;;;;;5080159;28;20024;-76
2021/05/10 12:11:57;;;;;;;1.90;1.70;;;18.60;33.00;;;;;;5076065;28;20073;-77
2021/05/10 12:14:23;;;;;;;2.60;2.10;;;18.70;34.30;;;;;;5078564;28;20115;-76
2021/05/10 12:17:06;;;;;;;3.38;2.00;;;18.90;33.20;;;;;;5087315;28;20162;-75
2021/05/10 12:20:03;;;;;;;3.33;2.30;;;19.20;31.00;;;;;;5082260;28;20052;-74
2021/05/10 12:22:39;;;;;;;5.07;1.90;;;19.40;29.00;;;;;;5082960;28;20509;-76
2021/05/10 12:25:07;;;;;;;2.38;1.95;;;19.60;33.10;;;;;;5082666;28;20089;-75
2021/05/10 12:27:37;;;;;;;2.45;2.13;;;19.80;33.70;;;;;;5083864;28;20066;-77
2021/05/10 12:30:16;;;;;;;2.45;1.85;;;20.20;32.40;;;;;;5082927;28;20354;-76
2021/05/10 12:32:45;;;;;;;4.15;2.03;;;20.50;30.90;;;;;;5083621;28;20472;-77
2021/05/10 12:35:11;;;;;;;2.10;1.90;;;20.80;33.30;;;;;;5081669;28;20017;-77
2021/05/10 12:37:45;;;;;;;2.08;1.70;;;21.20;34.50;;;;;;5093321;28;20516;-77
2021/05/10 12:40:14;;;;;;;2.83;2.17;;;21.70;33.20;;;;;;5081842;28;20081;-76
2021/05/10 12:42:43;;;;;;;2.25;1.98;;;22.20;32.40;;;;;;5080771;28;20024;-77
2021/05/10 12:45:11;;;;;;;4.28;2.50;;;22.70;34.10;;;;;;5079670;28;20529;-76
2021/05/10 12:47:44;;;;;;;3.72;2.10;;;23.20;31.20;;;;;;5075133;28;20040;-77
2021/05/10 12:50:32;;;;;;;2.38;1.80;;;23.40;28.50;;;;;;5089783;28;20074;-77
2021/05/10 12:53:01;;;;;;;3.20;2.30;;;23.70;26.50;;;;;;5103783;28;20024;-77
2021/05/10 12:55:27;;;;;;;2.65;2.05;;;24.10;30.50;;;;;;5083098;28;20107;-76
2021/05/10 12:57:53;;;;;;;2.30;1.90;;;24.40;30.00;;;;;;5076854;28;20112;-76
2021/05/10 13:00:37;;;;;;;1.80;1.70;;;24.70;30.80;;;;;;5091792;28;20020;-76
2021/05/10 13:03:04;;;;;;;2.95;2.00;;;25.10;27.40;;;;;;5083162;28;20078;-75